To NAV CANADA Home Page Login to a new session Search on AWWS site Disclaimer Vers la page française équivalente Tips FAQ What's new on the site To the Forecasts and Observations / NOTAM section To "File a Flight Plan" website Publications and other links Update of the User's profile FIC Telephone Numbers My Weather Data Folder Route Weather Data Regional Weather Data Local Weather Data To the Forecasts and Observations / NOTAM section
Request Generated 04/24/2019 at 16:46:09 UTC . Weather information available at that time is displayed.

METAR/TAF

NANAIMO/BC    

METAR CYCD 241600Z 31007KT 260V330 30SM FEW050 10/M01 A3035 RMK CU1 SLP280=
METAR CYCD 241500Z 29006KT 260V320 30SM FEW050 09/00 A3036 RMK SC1 SLP282=
METAR CYCD 241400Z 29007KT 240V310 30SM FEW050 07/M00 A3034 RMK SC1 SLP277=

TAF CYCD 241439Z 2415/2503 29007KT P6SM FEW050
RMK NXT FCST BY 241800Z=
Your time UTC time
Weather data provided by Environment Canada and NAV CANADA